Time;durP1;ratioP1;P1;durP2;ratioP2;P2;SDS_P1;SDS_P2;PMS_P1;PMS_P2;Temp;Humidity;BMP_temperature;BMP_pressure;BME280_temperature;BME280_humidity;BME280_pressure;Samples;Min_cycle;Max_cycle;Signal;HPM_P1;HPM_P2
2022/03/24 00:00:15;;;;;;;;;;;7.90;91.60;;;;;;5096167;28;19915;-45
2022/03/24 00:02:41;;;;;;;;;;;7.90;92.00;;;;;;5095798;28;20318;-49
2022/03/24 00:05:08;;;;;;;;;;;7.80;91.90;;;;;;5096017;28;19954;-49
2022/03/24 00:07:34;;;;;;;;;;;7.80;92.30;;;;;;5096112;28;19959;-44
2022/03/24 00:10:00;;;;;;;;;;;7.70;91.80;;;;;;5094886;28;19931;-45
2022/03/24 00:12:27;;;;;;;;;;;7.70;94.50;;;;;;5095691;28;20355;-48
2022/03/24 00:14:53;;;;;;;;;;;7.70;93.30;;;;;;5095776;28;19981;-44
2022/03/24 00:17:18;;;;;;;;;;;7.70;93.10;;;;;;5095706;28;19912;-44
2022/03/24 00:19:44;;;;;;;;;;;7.70;92.80;;;;;;5095763;28;20355;-45
2022/03/24 00:22:10;;;;;;;;;;;7.70;93.00;;;;;;5095353;28;19999;-46
2022/03/24 00:24:37;;;;;;;;;;;7.60;93.50;;;;;;5096004;28;19934;-46
2022/03/24 00:27:03;;;;;;;;;;;7.60;93.70;;;;;;5095706;28;19999;-45
2022/03/24 00:29:29;;;;;;;;;;;7.60;94.40;;;;;;5095444;28;19915;-48
2022/03/24 00:31:54;;;;;;;;;;;7.50;93.60;;;;;;5095534;28;19920;-46
2022/03/24 00:34:20;;;;;;;;;;;7.50;93.90;;;;;;5094914;28;19920;-49
2022/03/24 00:36:45;;;;;;;;;;;7.50;93.80;;;;;;5095397;28;19909;-44
2022/03/24 00:39:11;;;;;;;;;;;7.40;94.40;;;;;;5095134;28;20408;-45
2022/03/24 00:41:36;;;;;;;;;;;7.40;94.50;;;;;;5095697;28;19923;-45
2022/03/24 00:44:03;;;;;;;;;;;7.40;93.70;;;;;;5095338;28;20411;-47
2022/03/24 00:46:31;;;;;;;;;;;7.30;94.20;;;;;;5094826;28;19915;-43
2022/03/24 00:48:57;;;;;;;;;;;7.20;93.40;;;;;;5094753;28;19915;-43
2022/03/24 00:51:22;;;;;;;;;;;7.10;93.60;;;;;;5093882;28;19909;-44
2022/03/24 00:53:48;;;;;;;;;;;6.90;93.50;;;;;;5094839;28;19916;-46
2022/03/24 00:56:14;;;;;;;;;;;6.90;94.40;;;;;;5094771;28;20375;-41
2022/03/24 00:58:39;;;;;;;;;;;6.90;96.20;;;;;;5095036;28;19917;-43
2022/03/24 01:01:06;;;;;;;;;;;6.90;97.20;;;;;;5094748;28;20376;-45
2022/03/24 01:03:32;;;;;;;;;;;6.80;96.70;;;;;;5094952;28;19908;-46
2022/03/24 01:05:57;;;;;;;;;;;6.90;96.30;;;;;;5095190;28;19999;-44
2022/03/24 01:08:23;;;;;;;;;;;6.80;96.50;;;;;;5094904;28;19954;-45
2022/03/24 01:10:49;;;;;;;;;;;6.80;96.30;;;;;;5094591;28;19908;-46
2022/03/24 01:13:15;;;;;;;;;;;6.70;96.10;;;;;;5094765;28;19941;-43
2022/03/24 01:15:45;;;;;;;;;;;6.70;95.80;;;;;;5094751;28;19908;-44
2022/03/24 01:18:14;;;;;;;;;;;6.70;95.70;;;;;;5094734;28;19915;-43
2022/03/24 01:20:41;;;;;;;;;;;6.60;96.40;;;;;;5094681;28;19908;-46
2022/03/24 01:23:07;;;;;;;;;;;6.60;96.30;;;;;;5094263;28;19960;-45
2022/03/24 01:25:32;;;;;;;;;;;6.60;96.50;;;;;;5094369;28;19962;-45
2022/03/24 01:27:58;;;;;;;;;;;6.60;96.80;;;;;;5094265;28;19912;-44
2022/03/24 01:30:23;;;;;;;;;;;6.60;96.60;;;;;;5092911;28;19921;-45
2022/03/24 01:32:49;;;;;;;;;;;6.60;96.10;;;;;;5094123;28;19908;-45
2022/03/24 01:35:15;;;;;;;;;;;6.50;96.60;;;;;;5093199;28;19908;-44
2022/03/24 01:37:41;;;;;;;;;;;6.50;96.60;;;;;;5093070;28;19908;-45
2022/03/24 01:40:08;;;;;;;;;;;6.50;97.70;;;;;;5094456;28;19916;-44
2022/03/24 01:42:34;;;;;;;;;;;6.40;98.40;;;;;;5094374;28;19957;-44
2022/03/24 01:45:00;;;;;;;;;;;6.40;98.20;;;;;;5093055;28;19912;-44
2022/03/24 01:47:25;;;;;;;;;;;6.40;97.70;;;;;;5094288;28;19912;-45
2022/03/24 01:49:51;;;;;;;;;;;6.40;97.80;;;;;;5094142;28;19908;-44
2022/03/24 01:52:18;;;;;;;;;;;6.30;97.40;;;;;;5093877;28;20362;-46
2022/03/24 01:54:45;;;;;;;;;;;6.30;97.60;;;;;;5093552;28;19973;-44
2022/03/24 01:57:11;;;;;;;;;;;6.20;97.10;;;;;;5093949;28;20379;-45
2022/03/24 01:59:37;;;;;;;;;;;6.20;98.10;;;;;;5094008;28;19909;-44
2022/03/24 02:02:03;;;;;;;;;;;6.20;98.40;;;;;;5093651;28;19912;-45
2022/03/24 02:04:30;;;;;;;;;;;6.10;98.60;;;;;;5094176;28;20367;-45
2022/03/24 02:06:56;;;;;;;;;;;6.10;99.10;;;;;;5093678;28;19915;-44
2022/03/24 02:09:21;;;;;;;;;;;6.10;99.00;;;;;;5093924;28;20256;-46
2022/03/24 02:11:47;;;;;;;;;;;6.00;98.00;;;;;;5093795;28;19908;-44
2022/03/24 02:14:12;;;;;;;;;;;6.00;98.60;;;;;;5092394;28;19920;-46
2022/03/24 02:16:39;;;;;;;;;;;6.00;99.80;;;;;;5093763;28;19958;-45
2022/03/24 02:19:08;;;;;;;;;;;6.00;99.50;;;;;;5093400;28;19908;-44
2022/03/24 02:21:33;;;;;;;;;;;5.90;99.90;;;;;;5093801;28;19980;-45
2022/03/24 02:23:59;;;;;;;;;;;5.90;99.30;;;;;;5093337;28;20367;-43
2022/03/24 02:26:26;;;;;;;;;;;5.80;99.50;;;;;;5093651;28;19915;-44
2022/03/24 02:28:54;;;;;;;;;;;5.80;99.90;;;;;;5092420;28;19908;-45
2022/03/24 02:31:20;;;;;;;;;;;5.70;98.60;;;;;;5093907;28;20301;-44
2022/03/24 02:33:45;;;;;;;;;;;5.70;98.90;;;;;;5094704;28;19916;-46
2022/03/24 02:36:11;;;;;;;;;;;5.60;99.00;;;;;;5097504;28;20385;-45
2022/03/24 02:38:36;;;;;;;;;;;5.70;99.50;;;;;;5097658;28;19954;-44
2022/03/24 02:41:02;;;;;;;;;;;5.70;99.90;;;;;;5097299;28;19908;-45
2022/03/24 02:43:28;;;;;;;;;;;5.70;99.90;;;;;;5097227;28;19908;-45
2022/03/24 02:45:54;;;;;;;;;;;5.70;99.90;;;;;;5097264;28;20355;-44
2022/03/24 02:48:21;;;;;;;;;;;5.60;99.90;;;;;;5097393;28;19915;-43
2022/03/24 02:50:47;;;;;;;;;;;5.60;99.90;;;;;;5097721;28;19908;-43
2022/03/24 02:53:12;;;;;;;;;;;5.50;99.90;;;;;;5097012;28;20038;-42
2022/03/24 02:55:37;;;;;;;;;;;5.50;99.90;;;;;;5097325;28;19934;-45
2022/03/24 02:58:03;;;;;;;;;;;5.50;99.90;;;;;;5097323;28;19912;-42
2022/03/24 03:00:29;;;;;;;;;;;5.50;99.90;;;;;;5096882;28;19908;-42
2022/03/24 03:02:54;;;;;;;;;;;5.40;99.90;;;;;;5097018;28;20223;-43
2022/03/24 03:05:21;;;;;;;;;;;5.30;99.70;;;;;;5097164;28;20041;-44
2022/03/24 03:07:47;;;;;;;;;;;5.20;99.50;;;;;;5097098;28;19908;-45
2022/03/24 03:10:13;;;;;;;;;;;5.20;99.70;;;;;;5096994;28;19965;-44
2022/03/24 03:12:38;;;;;;;;;;;5.20;99.90;;;;;;5096825;28;19999;-44
2022/03/24 03:15:04;;;;;;;;;;;5.20;99.90;;;;;;5096990;28;19916;-44
2022/03/24 03:17:30;;;;;;;;;;;5.20;99.90;;;;;;5096963;28;19918;-44
2022/03/24 03:19:56;;;;;;;;;;;5.20;99.90;;;;;;5096573;28;19908;-44
2022/03/24 03:22:22;;;;;;;;;;;5.10;99.90;;;;;;5097133;28;20004;-43
2022/03/24 03:24:47;;;;;;;;;;;5.10;99.90;;;;;;5096585;28;19908;-44
2022/03/24 03:27:13;;;;;;;;;;;5.00;99.90;;;;;;5096867;28;19918;-47
2022/03/24 03:29:39;;;;;;;;;;;5.10;99.90;;;;;;5096474;28;19995;-45
2022/03/24 03:32:05;;;;;;;;;;;5.00;99.90;;;;;;5096614;28;19912;-44
2022/03/24 03:34:31;;;;;;;;;;;5.10;99.90;;;;;;5096648;28;20117;-43
2022/03/24 03:36:58;;;;;;;;;;;5.10;99.90;;;;;;5096783;28;20402;-43
2022/03/24 03:39:24;;;;;;;;;;;5.20;99.90;;;;;;5095414;28;20261;-44
2022/03/24 03:41:50;;;;;;;;;;;5.20;99.90;;;;;;5095235;28;19912;-43
2022/03/24 03:44:15;;;;;;;;;;;5.30;99.90;;;;;;5096360;28;19911;-46
2022/03/24 03:46:41;;;;;;;;;;;5.30;99.90;;;;;;5094034;28;20271;-45
2022/03/24 03:49:07;;;;;;;;;;;5.30;99.90;;;;;;5096365;28;19908;-46
2022/03/24 03:51:34;;;;;;;;;;;5.40;99.90;;;;;;5096517;28;19919;-43
2022/03/24 03:53:59;;;;;;;;;;;5.40;99.90;;;;;;5096074;28;20282;-44
2022/03/24 03:56:25;;;;;;;;;;;5.40;99.90;;;;;;5096849;28;19919;-45
2022/03/24 03:58:51;;;;;;;;;;;5.40;99.90;;;;;;5096682;28;20006;-47
2022/03/24 04:01:16;;;;;;;;;;;5.40;99.90;;;;;;5094999;28;19966;-44
2022/03/24 04:03:42;;;;;;;;;;;5.40;99.90;;;;;;5094870;28;19915;-43
2022/03/24 04:06:12;;;;;;;;;;;5.40;99.90;;;;;;5094891;28;20313;-46
2022/03/24 04:08:38;;;;;;;;;;;5.40;99.90;;;;;;5094738;28;19956;-46
2022/03/24 04:11:07;;;;;;;;;;;5.40;99.90;;;;;;5095679;28;19909;-44
2022/03/24 04:13:35;;;;;;;;;;;5.40;99.90;;;;;;5095876;28;19946;-43
2022/03/24 04:16:01;;;;;;;;;;;5.40;99.90;;;;;;5094582;28;19908;-45
2022/03/24 04:18:27;;;;;;;;;;;5.30;99.90;;;;;;5095546;28;19908;-45
2022/03/24 04:20:53;;;;;;;;;;;5.20;99.90;;;;;;5095518;28;20309;-46
2022/03/24 04:23:19;;;;;;;;;;;5.30;99.90;;;;;;5095738;28;19915;-46
2022/03/24 04:25:45;;;;;;;;;;;5.20;99.90;;;;;;5095407;28;19992;-46
2022/03/24 04:28:11;;;;;;;;;;;5.20;99.90;;;;;;5095683;28;20361;-44
2022/03/24 04:30:37;;;;;;;;;;;5.10;99.90;;;;;;5095498;28;19961;-44
2022/03/24 04:33:04;;;;;;;;;;;5.20;99.90;;;;;;5095093;28;19950;-45
2022/03/24 04:35:30;;;;;;;;;;;5.20;99.90;;;;;;5095418;28;19938;-45
2022/03/24 04:37:56;;;;;;;;;;;5.20;99.90;;;;;;5095127;28;19915;-43
2022/03/24 04:40:22;;;;;;;;;;;5.20;99.90;;;;;;5095148;28;19908;-43
2022/03/24 04:42:52;;;;;;;;;;;5.20;99.90;;;;;;5095071;28;20363;-43
2022/03/24 04:45:19;;;;;;;;;;;5.20;99.90;;;;;;5095344;28;19908;-46
2022/03/24 04:47:45;;;;;;;;;;;5.10;99.90;;;;;;5094915;28;19915;-43
2022/03/24 04:50:11;;;;;;;;;;;5.10;99.90;;;;;;5095085;28;20000;-43
2022/03/24 04:52:36;;;;;;;;;;;5.10;99.90;;;;;;5094864;28;19915;-42
2022/03/24 04:55:02;;;;;;;;;;;5.10;99.90;;;;;;5093728;28;20376;-45
2022/03/24 04:57:29;;;;;;;;;;;5.10;99.90;;;;;;5094865;28;20033;-43
2022/03/24 04:59:54;;;;;;;;;;;5.00;99.90;;;;;;5102725;28;19912;-44
2022/03/24 05:02:20;;;;;;;;;;;5.00;99.90;;;;;;5094653;28;20362;-43
2022/03/24 05:04:45;;;;;;;;;;;5.10;99.90;;;;;;5092707;28;20263;-43
2022/03/24 05:07:11;;;;;;;;;;;5.00;99.90;;;;;;5093450;28;19938;-46
2022/03/24 05:09:37;;;;;;;;;;;5.00;99.90;;;;;;5092951;28;19908;-42
2022/03/24 05:12:03;;;;;;;;;;;5.10;99.90;;;;;;5092835;28;19912;-44
2022/03/24 05:14:30;;;;;;;;;;;5.10;99.90;;;;;;5092823;28;19924;-44
2022/03/24 05:16:56;;;;;;;;;;;5.10;99.90;;;;;;5093158;28;20423;-44
2022/03/24 05:19:21;;;;;;;;;;;5.10;99.90;;;;;;5095970;28;20010;-47
2022/03/24 05:21:47;;;;;;;;;;;5.10;99.90;;;;;;5093358;28;19934;-45
2022/03/24 05:24:13;;;;;;;;;;;5.10;99.90;;;;;;5092767;28;20377;-44
2022/03/24 05:26:39;;;;;;;;;;;5.30;99.90;;;;;;5090696;28;19912;-46
2022/03/24 05:29:04;;;;;;;;;;;5.40;99.90;;;;;;5092468;28;19917;-47
2022/03/24 05:31:30;;;;;;;;;;;5.40;99.90;;;;;;5092651;28;19931;-44
2022/03/24 05:33:56;;;;;;;;;;;5.40;99.90;;;;;;5093434;28;19942;-43
2022/03/24 05:36:23;;;;;;;;;;;5.40;99.90;;;;;;5092276;28;20197;-43
2022/03/24 05:38:49;;;;;;;;;;;5.40;99.90;;;;;;5094214;28;20316;-43
2022/03/24 05:41:15;;;;;;;;;;;5.50;99.90;;;;;;5093978;28;19914;-44
2022/03/24 05:44:02;;;;;;;;;;;5.60;99.90;;;;;;5094077;28;19912;-45
2022/03/24 05:46:27;;;;;;;;;;;5.60;99.90;;;;;;5073432;28;19987;-47
2022/03/24 05:48:53;;;;;;;;;;;5.60;99.90;;;;;;5106282;28;19971;-45
2022/03/24 05:51:18;;;;;;;;;;;5.60;99.90;;;;;;5090467;28;19916;-44
2022/03/24 05:53:44;;;;;;;;;;;5.70;99.90;;;;;;5080588;28;19917;-46
2022/03/24 05:56:09;;;;;;;;;;;5.80;99.90;;;;;;5087092;28;19912;-45
2022/03/24 05:58:35;;;;;;;;;;;5.90;99.90;;;;;;5080951;28;19913;-47
2022/03/24 06:01:01;;;;;;;;;;;5.90;99.90;;;;;;5082149;28;19966;-45
2022/03/24 06:03:27;;;;;;;;;;;6.10;99.90;;;;;;5096763;28;19960;-45
2022/03/24 06:05:53;;;;;;;;;;;6.10;99.90;;;;;;5092623;28;19958;-46
2022/03/24 06:08:19;;;;;;;;;;;6.10;99.90;;;;;;5098216;28;19908;-45
2022/03/24 06:10:46;;;;;;;;;;;6.30;99.90;;;;;;5105926;28;20256;-46
2022/03/24 06:13:11;;;;;;;;;;;6.30;99.90;;;;;;5083862;28;19908;-46
2022/03/24 06:15:37;;;;;;;;;;;6.40;99.90;;;;;;5109156;28;19916;-46
2022/03/24 06:18:02;;;;;;;;;;;6.50;99.90;;;;;;5077036;28;19920;-44
2022/03/24 06:20:28;;;;;;;;;;;6.70;99.90;;;;;;5087964;28;19912;-50
2022/03/24 06:22:54;;;;;;;;;;;6.80;99.90;;;;;;5078956;28;20007;-46
2022/03/24 06:25:19;;;;;;;;;;;6.80;99.90;;;;;;5072005;28;19972;-43
2022/03/24 06:27:46;;;;;;;;;;;6.90;99.90;;;;;;5072972;28;19908;-48
2022/03/24 06:30:13;;;;;;;;;;;7.10;99.90;;;;;;5072822;28;19928;-48
2022/03/24 06:32:38;;;;;;;;;;;7.10;99.90;;;;;;5073216;28;19952;-45
2022/03/24 06:35:05;;;;;;;;;;;7.30;99.90;;;;;;5072985;28;20394;-46
2022/03/24 06:37:31;;;;;;;;;;;7.40;99.30;;;;;;5072487;28;20228;-48
2022/03/24 06:39:57;;;;;;;;;;;7.50;99.60;;;;;;5072940;28;20401;-45
2022/03/24 06:42:23;;;;;;;;;;;7.70;99.90;;;;;;5072272;28;20007;-44
2022/03/24 06:44:49;;;;;;;;;;;7.80;98.20;;;;;;5072659;28;19915;-45
2022/03/24 06:47:15;;;;;;;;;;;7.90;98.70;;;;;;5072529;28;19908;-46
2022/03/24 06:49:40;;;;;;;;;;;8.00;98.80;;;;;;5072650;28;19909;-46
2022/03/24 06:52:06;;;;;;;;;;;8.40;99.90;;;;;;5072487;28;19908;-44
2022/03/24 06:54:32;;;;;;;;;;;8.50;99.80;;;;;;5072344;28;20303;-44
2022/03/24 06:56:58;;;;;;;;;;;8.50;97.60;;;;;;5072216;28;19912;-47
2022/03/24 06:59:23;;;;;;;;;;;8.60;97.70;;;;;;5072040;28;19958;-47
2022/03/24 07:01:49;;;;;;;;;;;8.70;98.70;;;;;;5072305;28;19908;-44
2022/03/24 07:04:15;;;;;;;;;;;8.80;96.80;;;;;;5072654;28;19909;-46
2022/03/24 07:06:42;;;;;;;;;;;8.90;97.20;;;;;;5072317;28;19940;-45
2022/03/24 07:09:07;;;;;;;;;;;9.00;97.20;;;;;;5072111;28;19913;-47
2022/03/24 07:11:33;;;;;;;;;;;9.10;97.50;;;;;;5088056;28;19919;-44
2022/03/24 07:13:58;;;;;;;;;;;9.30;96.50;;;;;;5072366;28;19931;-45
2022/03/24 07:16:24;;;;;;;;;;;9.50;97.70;;;;;;5071711;28;19920;-45
2022/03/24 07:18:51;;;;;;;;;;;9.70;97.00;;;;;;5072471;28;19915;-47
2022/03/24 07:21:16;;;;;;;;;;;9.80;96.60;;;;;;5076014;28;19999;-43
2022/03/24 07:23:42;;;;;;;;;;;10.00;95.20;;;;;;5075904;28;19955;-46
2022/03/24 07:26:09;;;;;;;;;;;10.10;96.30;;;;;;5076339;28;19908;-45
2022/03/24 07:28:35;;;;;;;;;;;10.20;96.80;;;;;;5074452;28;19988;-44
2022/03/24 07:31:15;;;;;;;;;;;10.40;96.40;;;;;;5075544;28;19974;-47
2022/03/24 07:33:41;;;;;;;;;;;10.60;95.60;;;;;;5075667;28;19919;-45
2022/03/24 07:36:07;;;;;;;;;;;10.70;96.70;;;;;;5075477;28;19992;-47
2022/03/24 07:38:33;;;;;;;;;;;10.80;97.30;;;;;;5075375;28;19931;-45
2022/03/24 07:40:58;;;;;;;;;;;11.00;97.70;;;;;;5074111;28;19909;-49
2022/03/24 07:43:24;;;;;;;;;;;11.20;95.10;;;;;;5075585;28;19962;-47
2022/03/24 07:45:49;;;;;;;;;;;11.30;93.30;;;;;;5075183;28;19908;-45
2022/03/24 07:48:25;;;;;;;;;;;11.30;93.90;;;;;;5075466;28;19919;-48
2022/03/24 07:50:51;;;;;;;;;;;11.60;92.30;;;;;;5075392;28;19958;-45
2022/03/24 07:53:19;;;;;;;;;;;11.50;94.00;;;;;;5074922;28;19908;-45
2022/03/24 07:55:45;;;;;;;;;;;11.70;93.90;;;;;;5075136;28;19913;-44
2022/03/24 07:58:12;;;;;;;;;;;11.80;92.50;;;;;;5075281;28;20025;-46
2022/03/24 08:00:37;;;;;;;;;;;12.00;93.70;;;;;;5074807;28;20300;-44
2022/03/24 08:03:06;;;;;;;;;;;12.00;93.00;;;;;;5075268;28;19999;-42
2022/03/24 08:05:31;;;;;;;;;;;12.20;92.60;;;;;;5075018;28;20006;-45
2022/03/24 08:07:57;;;;;;;;;;;12.50;92.20;;;;;;5075465;28;20310;-47
2022/03/24 08:10:23;;;;;;;;;;;12.50;90.50;;;;;;5075075;28;19919;-45
2022/03/24 08:12:48;;;;;;;;;;;12.60;91.20;;;;;;5075190;28;20267;-46
2022/03/24 08:15:14;;;;;;;;;;;12.70;89.30;;;;;;5074867;28;19913;-46
2022/03/24 08:17:39;;;;;;;;;;;12.80;90.50;;;;;;5075170;28;19958;-44
2022/03/24 08:20:06;;;;;;;;;;;12.80;93.30;;;;;;5074491;28;19915;-46
2022/03/24 08:22:31;;;;;;;;;;;13.10;92.90;;;;;;5075188;28;19908;-45
2022/03/24 08:24:57;;;;;;;;;;;13.10;92.50;;;;;;5075023;28;20016;-44
2022/03/24 08:27:22;;;;;;;;;;;13.40;92.70;;;;;;5073664;28;20101;-47
2022/03/24 08:29:48;;;;;;;;;;;13.60;89.70;;;;;;5107510;28;19957;-44
2022/03/24 08:32:14;;;;;;;;;;;13.70;89.10;;;;;;5074315;28;19952;-47
2022/03/24 08:34:40;;;;;;;;;;;13.80;90.40;;;;;;5074844;28;19919;-45
2022/03/24 08:37:06;;;;;;;;;;;13.80;87.30;;;;;;5074645;28;19912;-44
2022/03/24 08:39:32;;;;;;;;;;;13.90;89.80;;;;;;5074670;28;20397;-46
2022/03/24 08:41:58;;;;;;;;;;;14.00;91.70;;;;;;5074467;28;19916;-48
2022/03/24 08:44:23;;;;;;;;;;;14.10;90.80;;;;;;5074675;28;20265;-44
2022/03/24 08:46:49;;;;;;;;;;;14.30;88.30;;;;;;5073124;28;20292;-45
2022/03/24 08:49:14;;;;;;;;;;;14.60;85.50;;;;;;5074312;28;19913;-44
2022/03/24 08:51:40;;;;;;;;;;;14.70;87.50;;;;;;5074520;28;19996;-45
2022/03/24 08:54:06;;;;;;;;;;;14.80;84.40;;;;;;5074576;28;19912;-46
2022/03/24 08:56:32;;;;;;;;;;;14.80;90.10;;;;;;5074232;28;19966;-45
2022/03/24 08:58:58;;;;;;;;;;;15.00;88.10;;;;;;5074026;28;19909;-45
2022/03/24 09:01:23;;;;;;;;;;;15.10;78.90;;;;;;5073990;28;19912;-47
2022/03/24 09:03:51;;;;;;;;;;;15.10;76.00;;;;;;5074420;28;19985;-47
2022/03/24 09:06:16;;;;;;;;;;;15.00;74.40;;;;;;5074013;28;19909;-43
2022/03/24 09:08:42;;;;;;;;;;;15.00;74.50;;;;;;5074152;28;20359;-43
2022/03/24 09:11:09;;;;;;;;;;;15.10;73.40;;;;;;5073957;28;19916;-45
2022/03/24 09:13:35;;;;;;;;;;;15.10;75.90;;;;;;5073960;28;20476;-45
2022/03/24 09:16:00;;;;;;;;;;;15.30;83.20;;;;;;5073919;28;20053;-43
2022/03/24 09:18:26;;;;;;;;;;;15.40;72.70;;;;;;5074462;28;19948;-45
2022/03/24 09:20:52;;;;;;;;;;;15.50;72.40;;;;;;5073127;28;19915;-45
2022/03/24 09:23:18;;;;;;;;;;;15.70;71.30;;;;;;5074258;28;20382;-45
2022/03/24 09:25:44;;;;;;;;;;;15.70;68.90;;;;;;5072834;28;19912;-45
2022/03/24 09:28:10;;;;;;;;;;;15.20;67.90;;;;;;5073955;28;20244;-47
2022/03/24 09:30:36;;;;;;;;;;;15.30;67.20;;;;;;5073911;28;19974;-47
2022/03/24 09:33:02;;;;;;;;;;;15.50;69.00;;;;;;5074117;28;19909;-45
2022/03/24 09:35:28;;;;;;;;;;;15.50;68.10;;;;;;5072356;28;19912;-47
2022/03/24 09:37:54;;;;;;;;;;;15.80;71.60;;;;;;5074181;28;19912;-46
2022/03/24 09:40:20;;;;;;;;;;;15.90;70.20;;;;;;5073900;28;20275;-46
2022/03/24 09:42:46;;;;;;;;;;;16.20;67.60;;;;;;5073823;28;19912;-46
2022/03/24 09:45:13;;;;;;;;;;;16.40;68.10;;;;;;5073400;28;19915;-44
2022/03/24 09:47:40;;;;;;;;;;;16.70;65.60;;;;;;5072424;28;19996;-45
2022/03/24 09:50:06;;;;;;;;;;;16.80;65.00;;;;;;5073493;28;19916;-46
2022/03/24 09:52:31;;;;;;;;;;;16.70;63.80;;;;;;5073482;28;19908;-46
2022/03/24 09:54:57;;;;;;;;;;;16.70;63.30;;;;;;5073066;28;19919;-46
2022/03/24 09:57:23;;;;;;;;;;;16.80;63.30;;;;;;5073278;28;20024;-48
2022/03/24 09:59:49;;;;;;;;;;;16.40;63.70;;;;;;5073099;28;20058;-50
2022/03/24 10:02:15;;;;;;;;;;;16.70;62.50;;;;;;5072959;28;20332;-44
2022/03/24 10:04:44;;;;;;;;;;;16.80;62.10;;;;;;5073208;28;20006;-49
2022/03/24 10:07:10;;;;;;;;;;;16.80;62.00;;;;;;5073550;28;19915;-45
2022/03/24 10:09:40;;;;;;;;;;;17.10;60.90;;;;;;5072855;28;19908;-44
2022/03/24 10:12:07;;;;;;;;;;;16.90;61.50;;;;;;5072964;28;20245;-48
2022/03/24 10:14:32;;;;;;;;;;;17.20;62.40;;;;;;5073201;28;19932;-45
2022/03/24 10:17:08;;;;;;;;;;;17.10;61.40;;;;;;5073120;28;19974;-44
2022/03/24 10:19:34;;;;;;;;;;;17.10;61.50;;;;;;5073168;28;20381;-44
2022/03/24 10:22:05;;;;;;;;;;;17.00;60.30;;;;;;5073533;28;19942;-48
2022/03/24 10:24:38;;;;;;;;;;;16.60;60.00;;;;;;5072786;28;19908;-52
2022/03/24 10:27:04;;;;;;;;;;;16.70;60.30;;;;;;5072999;28;19918;-48
2022/03/24 10:29:30;;;;;;;;;;;17.00;62.40;;;;;;5072609;28;19915;-46
2022/03/24 10:31:57;;;;;;;;;;;17.30;61.20;;;;;;5072759;28;19974;-49
2022/03/24 10:34:35;;;;;;;;;;;17.40;58.70;;;;;;5072651;28;19913;-43
2022/03/24 10:37:02;;;;;;;;;;;17.60;59.60;;;;;;5072461;28;19917;-46
2022/03/24 10:39:28;;;;;;;;;;;17.80;57.80;;;;;;5072966;28;20394;-46
2022/03/24 10:41:53;;;;;;;;;;;17.90;57.50;;;;;;5105387;28;19948;-44
2022/03/24 10:44:19;;;;;;;;;;;17.80;55.90;;;;;;5072977;28;19999;-44
2022/03/24 10:46:45;;;;;;;;;;;17.40;55.00;;;;;;5072851;28;20012;-48
2022/03/24 10:49:15;;;;;;;;;;;17.10;55.30;;;;;;5073039;28;19915;-46
2022/03/24 10:51:42;;;;;;;;;;;17.00;56.40;;;;;;5072735;28;19908;-45
2022/03/24 10:54:13;;;;;;;;;;;17.40;55.70;;;;;;5072833;28;19965;-45
2022/03/24 10:56:43;;;;;;;;;;;17.40;55.70;;;;;;5076059;28;19924;-44
2022/03/24 10:59:09;;;;;;;;;;;17.10;55.80;;;;;;5076380;28;20268;-49
2022/03/24 11:01:34;;;;;;;;;;;17.50;59.60;;;;;;5076307;28;19916;-45
2022/03/24 11:04:00;;;;;;;;;;;17.70;57.00;;;;;;5076060;28;19909;-47
2022/03/24 11:06:27;;;;;;;;;;;17.80;55.60;;;;;;5076468;28;19916;-44
2022/03/24 11:08:57;;;;;;;;;;;17.70;55.20;;;;;;5091632;28;20007;-46
2022/03/24 11:11:23;;;;;;;;;;;17.90;55.30;;;;;;5076491;28;20003;-48
2022/03/24 11:13:53;;;;;;;;;;;18.20;54.90;;;;;;5074866;28;19919;-45
2022/03/24 11:16:23;;;;;;;;;;;18.30;54.20;;;;;;5076121;28;19913;-44
2022/03/24 11:18:49;;;;;;;;;;;18.00;53.90;;;;;;5076229;28;19909;-46
2022/03/24 11:21:28;;;;;;;;;;;18.00;53.70;;;;;;5075830;28;19909;-47
2022/03/24 11:23:54;;;;;;;;;;;17.90;53.20;;;;;;5075804;28;19909;-46
2022/03/24 11:26:21;;;;;;;;;;;18.00;53.40;;;;;;5074523;28;20386;-49
2022/03/24 11:28:47;;;;;;;;;;;18.10;58.80;;;;;;5075873;28;19999;-46
2022/03/24 11:31:13;;;;;;;;;;;18.50;53.20;;;;;;5075784;28;19920;-44
2022/03/24 11:33:45;;;;;;;;;;;18.70;52.60;;;;;;5091325;28;19912;-47
2022/03/24 11:36:11;;;;;;;;;;;18.30;52.80;;;;;;5075437;28;20349;-44
2022/03/24 11:38:38;;;;;;;;;;;17.90;52.30;;;;;;5075348;28;19908;-47
2022/03/24 11:41:05;;;;;;;;;;;18.00;52.80;;;;;;5075408;28;19988;-45
2022/03/24 11:43:32;;;;;;;;;;;18.10;52.50;;;;;;5075624;28;20003;-44
2022/03/24 11:46:09;;;;;;;;;;;18.30;52.10;;;;;;5075854;28;19954;-45
2022/03/24 11:48:35;;;;;;;;;;;18.30;51.70;;;;;;5075840;28;19962;-44
2022/03/24 11:51:23;;;;;;;;;;;18.20;51.80;;;;;;5075768;28;19908;-47
2022/03/24 11:54:02;;;;;;;;;;;18.60;51.70;;;;;;5075473;28;19912;-47
2022/03/24 11:56:28;;;;;;;;;;;18.40;52.10;;;;;;5074761;28;20286;-49
2022/03/24 11:58:53;;;;;;;;;;;18.90;51.20;;;;;;5075470;28;19913;-46
2022/03/24 12:01:23;;;;;;;;;;;19.00;51.70;;;;;;5075246;28;19999;-49
2022/03/24 12:03:49;;;;;;;;;;;18.60;51.60;;;;;;5075150;28;19908;-48
2022/03/24 12:06:15;;;;;;;;;;;18.70;51.70;;;;;;5073771;28;20011;-44
2022/03/24 12:08:44;;;;;;;;;;;18.00;50.70;;;;;;5075283;28;19934;-48
2022/03/24 12:11:29;;;;;;;;;;;18.00;51.10;;;;;;5074534;28;19995;-45
2022/03/24 12:13:55;;;;;;;;;;;18.30;51.10;;;;;;5074940;28;19924;-48
2022/03/24 12:16:23;;;;;;;;;;;18.30;50.50;;;;;;5074988;28;19943;-49
2022/03/24 12:18:49;;;;;;;;;;;18.10;50.40;;;;;;5074398;28;19930;-45
2022/03/24 12:21:28;;;;;;;;;;;17.90;50.00;;;;;;5074549;28;19909;-45
2022/03/24 12:24:14;;;;;;;;;;;18.20;50.50;;;;;;5074642;28;19912;-47
2022/03/24 12:26:47;;;;;;;;;;;18.30;50.00;;;;;;5074487;28;20359;-49
2022/03/24 12:29:16;;;;;;;;;;;18.60;49.90;;;;;;5074949;28;19908;-46
2022/03/24 12:31:57;;;;;;;;;;;18.70;49.00;;;;;;5074508;28;20007;-46
2022/03/24 12:34:27;;;;;;;;;;;18.40;48.90;;;;;;5074727;28;19919;-44
2022/03/24 12:36:52;;;;;;;;;;;18.50;49.20;;;;;;5074436;28;19950;-46
2022/03/24 12:39:31;;;;;;;;;;;18.60;48.90;;;;;;5073359;28;19908;-45
2022/03/24 12:42:11;;;;;;;;;;;18.50;49.00;;;;;;5107169;28;19909;-48
2022/03/24 12:44:49;;;;;;;;;;;18.70;49.00;;;;;;5090010;28;19913;-47
2022/03/24 12:47:31;;;;;;;;;;;19.00;48.60;;;;;;5074287;28;19913;-46
2022/03/24 12:49:58;;;;;;;;;;;19.10;48.70;;;;;;5074253;28;19909;-46
2022/03/24 12:52:26;;;;;;;;;;;19.00;47.90;;;;;;5074194;28;19912;-44
2022/03/24 12:54:53;;;;;;;;;;;19.20;48.20;;;;;;5072872;28;19912;-45
2022/03/24 12:57:21;;;;;;;;;;;19.40;48.20;;;;;;5074300;28;19966;-44
2022/03/24 12:59:46;;;;;;;;;;;19.10;48.50;;;;;;5074530;28;20423;-46
2022/03/24 13:02:12;;;;;;;;;;;18.80;48.50;;;;;;5074308;28;19912;-47
2022/03/24 13:04:38;;;;;;;;;;;18.30;48.70;;;;;;5074311;28;19915;-45
2022/03/24 13:07:04;;;;;;;;;;;18.30;49.10;;;;;;5074104;28;19917;-52
2022/03/24 13:09:30;;;;;;;;;;;18.40;48.80;;;;;;5074572;28;20362;-47
2022/03/24 13:12:02;;;;;;;;;;;18.40;49.20;;;;;;5073822;28;19943;-44
2022/03/24 13:14:29;;;;;;;;;;;18.50;48.40;;;;;;5073973;28;20362;-49
2022/03/24 13:16:58;;;;;;;;;;;18.70;48.90;;;;;;5073758;28;19919;-48
2022/03/24 13:19:24;;;;;;;;;;;18.40;49.20;;;;;;5073541;28;19916;-46
2022/03/24 13:21:50;;;;;;;;;;;18.60;49.10;;;;;;5073560;28;19993;-44
2022/03/24 13:24:19;;;;;;;;;;;18.70;48.90;;;;;;5074206;28;19913;-47
2022/03/24 13:26:55;;;;;;;;;;;18.40;48.50;;;;;;5073782;28;20011;-44
2022/03/24 13:29:21;;;;;;;;;;;18.40;48.60;;;;;;5073698;28;20010;-44
2022/03/24 13:31:47;;;;;;;;;;;18.20;49.20;;;;;;5073606;28;19921;-47
2022/03/24 13:34:13;;;;;;;;;;;18.30;48.80;;;;;;5072966;28;19918;-48
2022/03/24 13:36:39;;;;;;;;;;;18.40;49.00;;;;;;5073526;28;19913;-46
2022/03/24 13:39:04;;;;;;;;;;;18.40;48.90;;;;;;5072060;28;20003;-47
2022/03/24 13:41:30;;;;;;;;;;;18.30;48.70;;;;;;5073401;28;20344;-48
2022/03/24 13:43:55;;;;;;;;;;;18.30;49.20;;;;;;5073657;28;19913;-48
2022/03/24 13:46:21;;;;;;;;;;;18.20;48.90;;;;;;5073623;28;19912;-44
2022/03/24 13:48:50;;;;;;;;;;;18.40;48.60;;;;;;5073153;28;19988;-45
2022/03/24 13:51:19;;;;;;;;;;;18.40;48.50;;;;;;5073716;28;19928;-49
2022/03/24 13:53:44;;;;;;;;;;;18.60;48.70;;;;;;5073435;28;20223;-46
2022/03/24 13:56:11;;;;;;;;;;;18.80;48.50;;;;;;5073122;28;19919;-51
2022/03/24 13:58:37;;;;;;;;;;;18.70;48.20;;;;;;5073487;28;19916;-47
2022/03/24 14:01:04;;;;;;;;;;;18.90;48.20;;;;;;5073005;28;19909;-47
2022/03/24 14:03:30;;;;;;;;;;;18.70;48.20;;;;;;5073358;28;19915;-44
2022/03/24 14:06:00;;;;;;;;;;;18.70;48.50;;;;;;5073036;28;19908;-46
2022/03/24 14:08:34;;;;;;;;;;;18.80;48.20;;;;;;5073609;28;19982;-49
2022/03/24 14:11:00;;;;;;;;;;;18.90;48.50;;;;;;5073110;28;20322;-45
2022/03/24 14:13:34;;;;;;;;;;;18.80;48.50;;;;;;5072615;28;19920;-47
2022/03/24 14:16:08;;;;;;;;;;;18.80;48.30;;;;;;5073149;28;19962;-49
2022/03/24 14:18:34;;;;;;;;;;;18.60;48.50;;;;;;5088561;28;19956;-45
2022/03/24 14:21:00;;;;;;;;;;;18.60;48.60;;;;;;5076457;28;20401;-48